CYQQ

Comox Airport

Comox, , Canada
METAR CYQQ 191500Z 14028G33KT 20SM -SHRA SCT014 OVC045 07/05 A2967 RMK SF4SC4 SLP049
Observed Flight Rules
Jan-19 @ 15:00 UTC (27 minutes ago) Visual Flight Rules
Wind Visibility Clouds Conditions
140° at 28 knots
 Gusting to 33 knots
20 miles
  • Scattered at 1,400' AGL
  • Overcast at 4,500' AGL
  • Light Rain
Temperatures Readings
Current 7°C / 45°F
Dewpoint 5°C / 41°F
Humidity 87%
Altimeter 29.67" Hg
Pressure 1004.9 hPa
Elevation 24
METAR CYQQ 191500Z 14028G33KT 20SM -SHRA SCT014 OVC045 07/05 A2967 RMK SF4SC4 SLP049
Observed Flight Rules
Jan-19 @ 15:00 UTC
(27 minutes ago)
VFR
Wind Visibility
140° at 28 knots
 Gusting to 33 knots
20 miles
Clouds
  • Scattered at 1,400' AGL
  • Overcast at 4,500' AGL
Conditions
  • Light Rain
Temperature Dewpoint
7°C / 45°F 5°C / 41°F
Humidity Altimeter Pressure
87% 29.67" Hg 1004.9 hPa